Terminal Aerodrome Forecast
Issued by NWS

Home | Current Version | Previous Version | Text Only | Print | Product List | Glossary On
Versions: 1 2 3 4 5 6 7 8 9 10 11 12 13 14 15 16 17 18 19 20 21 22 23 24
778
FTUS41 KPBZ 182325
TAFZZV
TAF
KZZV 182325Z 1900/1924 13005KT P6SM FEW250
     FM190500 15008KT P6SM SCT250 WS020/18040KT
     FM191100 17009KT P6SM VCSH OVC030 WS020/20040KT
     FM191200 17010KT P6SM -SHRA OVC015 WS020/20040KT
     FM191400 18011KT 5SM -RA BR OVC008 WS020/20040KT
     FM191600 19012KT 3SM -RA BR OVC015
     FM192100 20011KT P6SM BKN050=

USA.gov is the U.S. government's official web portal to all federal, state and local government web resources and services.